createdAt,value
2022-09-14T00:00:38.634Z,142.39
2022-09-14T00:01:38.671Z,142.34
2022-09-14T00:02:38.954Z,142.34
2022-09-14T00:03:38.659Z,142.40
2022-09-14T00:04:38.807Z,142.40
2022-09-14T00:05:38.816Z,142.41
2022-09-14T00:06:38.842Z,142.44
2022-09-14T00:07:38.808Z,142.42
2022-09-14T00:08:38.836Z,142.44
2022-09-14T00:09:38.847Z,142.43
2022-09-14T00:10:38.986Z,142.36
2022-09-14T00:11:38.984Z,142.31
2022-09-14T00:12:38.989Z,142.35
2022-09-14T00:13:39.044Z,142.36
2022-09-14T00:14:39.010Z,142.32
2022-09-14T00:15:39.119Z,142.36
2022-09-14T00:16:39.247Z,142.32
2022-09-14T00:17:39.121Z,142.37
2022-09-14T00:18:39.124Z,142.39
2022-09-14T00:19:39.156Z,142.38
2022-09-14T00:20:39.255Z,142.37
2022-09-14T00:21:39.257Z,142.39
2022-09-14T00:22:39.251Z,142.38
2022-09-14T00:23:39.423Z,142.40
2022-09-14T00:24:39.428Z,142.41
2022-09-14T00:25:39.426Z,142.41
2022-09-14T00:26:39.433Z,142.38
2022-09-14T00:27:39.598Z,142.42
2022-09-14T00:28:39.708Z,142.38
2022-09-14T00:29:39.600Z,142.43
2022-09-14T00:30:39.605Z,142.35
2022-09-14T00:31:39.646Z,142.38
2022-09-14T00:32:39.624Z,142.41
2022-09-14T00:33:39.776Z,142.38
2022-09-14T00:34:39.771Z,142.45
2022-09-14T00:35:39.773Z,142.38
2022-09-14T00:36:39.943Z,142.46
2022-09-14T00:37:39.944Z,142.37
2022-09-14T00:38:39.954Z,142.37
2022-09-14T00:39:40.139Z,142.40
2022-09-14T00:40:39.944Z,142.52
2022-09-14T00:41:39.971Z,142.38
2022-09-14T00:42:40.115Z,142.42
2022-09-14T00:43:40.153Z,142.39
2022-09-14T00:44:40.288Z,142.46
2022-09-14T00:45:40.174Z,142.41
2022-09-14T00:46:40.120Z,142.44
2022-09-14T00:47:40.156Z,142.44
2022-09-14T00:48:40.290Z,142.34
2022-09-14T00:49:40.292Z,142.46
2022-09-14T00:50:40.294Z,142.42
2022-09-14T00:51:40.306Z,142.42
2022-09-14T00:52:40.319Z,142.42
2022-09-14T00:53:40.483Z,142.43
2022-09-14T00:54:40.468Z,142.37
2022-09-14T00:55:40.467Z,142.39
2022-09-14T00:56:40.466Z,142.37
2022-09-14T00:57:40.473Z,142.40
2022-09-14T00:58:40.497Z,142.45
2022-09-14T00:59:40.523Z,142.41
2022-09-14T01:00:40.605Z,142.44
2022-09-14T01:01:40.557Z,142.35
2022-09-14T01:02:40.630Z,142.40
2022-09-14T01:03:40.545Z,142.34
2022-09-14T01:04:40.585Z,142.35
2022-09-14T01:05:40.675Z,142.41
2022-09-14T01:06:40.697Z,142.38
2022-09-14T01:07:40.727Z,142.38
2022-09-14T01:08:40.722Z,142.34
2022-09-14T01:09:40.767Z,142.37
2022-09-14T01:10:40.828Z,142.47
2022-09-14T01:11:40.818Z,142.43
2022-09-14T01:12:40.872Z,142.31
2022-09-14T01:13:40.890Z,142.39
2022-09-14T01:14:40.911Z,142.38
2022-09-14T01:15:40.943Z,142.39
2022-09-14T01:16:41.116Z,142.38
2022-09-14T01:17:41.023Z,142.39
2022-09-14T01:18:41.028Z,142.37
2022-09-14T01:19:41.053Z,142.38
2022-09-14T01:20:41.090Z,142.45
2022-09-14T01:21:41.134Z,142.37
2022-09-14T01:22:41.192Z,142.38
2022-09-14T01:23:41.246Z,142.38
2022-09-14T01:24:41.228Z,142.48
2022-09-14T01:25:41.309Z,142.43
2022-09-14T01:26:41.282Z,142.40
2022-09-14T01:27:41.373Z,142.40
2022-09-14T01:28:41.358Z,142.37
2022-09-14T01:29:41.425Z,142.33
2022-09-14T01:30:41.430Z,142.36
2022-09-14T01:31:41.530Z,142.39
2022-09-14T01:32:41.500Z,142.33
2022-09-14T01:33:41.531Z,142.39
2022-09-14T01:34:41.544Z,142.50
2022-09-14T01:35:41.625Z,142.41
2022-09-14T01:36:41.622Z,142.44
2022-09-14T01:37:41.651Z,142.40
2022-09-14T01:38:41.686Z,142.43
2022-09-14T01:39:41.775Z,142.41
2022-09-14T01:40:41.756Z,142.43
2022-09-14T01:41:41.776Z,142.46
2022-09-14T01:42:41.858Z,142.41
2022-09-14T01:43:41.843Z,142.47
2022-09-14T01:44:41.865Z,142.48
2022-09-14T01:45:42.024Z,142.43
2022-09-14T01:46:42.007Z,142.38
2022-09-14T01:47:42.033Z,142.42
2022-09-14T01:48:42.016Z,142.42
2022-09-14T01:49:42.062Z,142.43
2022-09-14T01:50:42.090Z,142.49
2022-09-14T01:51:42.117Z,142.45
2022-09-14T01:52:42.231Z,142.40
2022-09-14T01:53:42.215Z,142.47
2022-09-14T01:54:42.294Z,142.42
2022-09-14T01:55:42.320Z,142.49
2022-09-14T01:56:42.299Z,142.45
2022-09-14T01:57:42.513Z,142.47
2022-09-14T01:58:42.515Z,142.40
2022-09-14T01:59:42.514Z,142.41
2022-09-14T02:00:42.585Z,142.42
2022-09-14T02:01:42.736Z,142.39
2022-09-14T02:02:42.656Z,142.41
2022-09-14T02:03:42.560Z,142.36
2022-09-14T02:04:42.618Z,142.41
2022-09-14T02:05:42.600Z,142.35
2022-09-14T02:06:42.629Z,142.38
2022-09-14T02:07:42.725Z,142.40
2022-09-14T02:08:42.714Z,142.46
2022-09-14T02:09:42.713Z,142.42
2022-09-14T02:10:42.740Z,142.39
2022-09-14T02:11:42.861Z,142.41
2022-09-14T02:12:42.894Z,142.43
2022-09-14T02:13:42.991Z,142.39
2022-09-14T02:14:42.893Z,142.45
2022-09-14T02:15:42.927Z,142.41
2022-09-14T02:16:43.030Z,142.41
2022-09-14T02:17:42.979Z,142.49
2022-09-14T02:18:43.017Z,142.36
2022-09-14T02:19:43.125Z,142.38
2022-09-14T02:20:43.111Z,142.39
2022-09-14T02:21:43.151Z,142.41
2022-09-14T02:22:43.178Z,142.40
2022-09-14T02:23:43.214Z,142.34
2022-09-14T02:24:43.246Z,142.46
2022-09-14T02:25:43.263Z,142.33
2022-09-14T02:26:43.300Z,142.46
2022-09-14T02:27:43.396Z,142.38
2022-09-14T02:28:43.434Z,142.40
2022-09-14T02:29:43.432Z,142.40
2022-09-14T02:30:43.469Z,142.39
2022-09-14T02:31:43.537Z,142.43
2022-09-14T02:32:43.589Z,142.43
2022-09-14T02:33:43.569Z,142.40
2022-09-14T02:34:43.609Z,142.35
2022-09-14T02:35:43.656Z,142.36
2022-09-14T02:36:43.678Z,142.43
2022-09-14T02:37:43.726Z,142.43
2022-09-14T02:38:43.753Z,142.41
2022-09-14T02:39:43.944Z,142.37
2022-09-14T02:40:43.826Z,142.37
2022-09-14T02:41:43.880Z,142.35
2022-09-14T02:42:43.941Z,142.37
2022-09-14T02:43:44.007Z,142.37
2022-09-14T02:44:43.963Z,142.43
2022-09-14T02:45:44.003Z,142.33
2022-09-14T02:46:47.467Z,142.39
2022-09-14T02:47:44.057Z,142.36
2022-09-14T02:48:44.087Z,142.35
2022-09-14T02:49:44.199Z,142.31
2022-09-14T02:50:44.178Z,142.33
2022-09-14T02:51:44.220Z,142.36
2022-09-14T02:52:44.259Z,142.28
2022-09-14T02:53:44.350Z,142.36
2022-09-14T02:54:44.332Z,142.32
2022-09-14T02:55:44.423Z,142.29
2022-09-14T02:56:44.393Z,142.35
2022-09-14T02:57:44.465Z,142.40
2022-09-14T02:58:44.507Z,142.38
2022-09-14T02:59:44.508Z,142.41
2022-09-14T03:00:44.674Z,142.38
2022-09-14T03:01:44.651Z,142.44
2022-09-14T03:02:44.567Z,142.38
2022-09-14T03:03:44.605Z,142.43
2022-09-14T03:04:44.638Z,142.40
2022-09-14T03:05:44.672Z,142.40
2022-09-14T03:06:44.720Z,142.36
2022-09-14T03:07:44.793Z,142.47
2022-09-14T03:08:44.786Z,142.44
2022-09-14T03:09:44.811Z,142.48
2022-09-14T03:10:44.912Z,142.57
2022-09-14T03:11:44.896Z,142.56
2022-09-14T03:12:44.972Z,142.55
2022-09-14T03:13:44.958Z,142.47
2022-09-14T03:14:44.991Z,142.50
2022-09-14T03:15:45.065Z,142.48
2022-09-14T03:16:45.091Z,142.43
2022-09-14T03:17:45.092Z,142.38
2022-09-14T03:18:45.116Z,142.50
2022-09-14T03:19:45.200Z,142.48
2022-09-14T03:20:45.183Z,142.43
2022-09-14T03:21:45.212Z,142.49
2022-09-14T03:22:45.243Z,142.37
2022-09-14T03:23:45.269Z,142.35
2022-09-14T03:24:45.296Z,142.32
2022-09-14T03:25:45.331Z,142.37
2022-09-14T03:26:45.432Z,142.36
2022-09-14T03:27:45.467Z,142.39
2022-09-14T03:28:45.517Z,142.42
2022-09-14T03:29:45.551Z,142.33
2022-09-14T03:30:45.534Z,142.51
2022-09-14T03:31:45.620Z,142.49
2022-09-14T03:32:45.593Z,142.44
2022-09-14T03:33:45.635Z,142.40
2022-09-14T03:34:45.696Z,142.34
2022-09-14T03:35:45.680Z,142.44
2022-09-14T03:36:45.736Z,142.45
2022-09-14T03:37:45.762Z,142.32
2022-09-14T03:38:45.853Z,142.40
2022-09-14T03:39:45.909Z,142.37
2022-09-14T03:40:45.872Z,142.48
2022-09-14T03:41:45.929Z,142.34
2022-09-14T03:42:45.905Z,142.34
2022-09-14T03:43:45.938Z,142.36
2022-09-14T03:44:45.975Z,142.38
2022-09-14T03:45:46.064Z,142.38
2022-09-14T03:46:46.112Z,142.38
2022-09-14T03:47:46.049Z,142.42
2022-09-14T03:48:46.075Z,142.39
2022-09-14T03:49:46.148Z,142.43
2022-09-14T03:50:46.161Z,142.43
2022-09-14T03:51:46.280Z,142.39
2022-09-14T03:52:46.250Z,142.40
2022-09-14T03:53:46.276Z,142.41
2022-09-14T03:54:46.341Z,142.39
2022-09-14T03:55:46.347Z,142.44
2022-09-14T03:56:46.358Z,142.43
2022-09-14T03:57:46.429Z,142.48
2022-09-14T03:58:46.504Z,142.47
2022-09-14T03:59:46.493Z,142.40
2022-09-14T04:00:46.502Z,142.42
2022-09-14T04:01:46.611Z,142.45
2022-09-14T04:02:46.663Z,142.46
2022-09-14T04:03:46.585Z,142.37
2022-09-14T04:04:46.630Z,142.42
2022-09-14T04:05:46.736Z,142.43
2022-09-14T04:06:46.706Z,142.43
2022-09-14T04:07:46.732Z,142.40
2022-09-14T04:08:46.922Z,142.54
2022-09-14T04:09:46.795Z,142.36
2022-09-14T04:10:46.834Z,142.42
2022-09-14T04:11:47.768Z,142.48
2022-09-14T04:12:46.910Z,142.45
2022-09-14T04:13:46.949Z,142.42
2022-09-14T04:14:47.045Z,142.37
2022-09-14T04:15:47.099Z,142.45
2022-09-14T04:16:47.053Z,142.40
2022-09-14T04:17:47.153Z,142.40
2022-09-14T04:18:47.138Z,142.48
2022-09-14T04:19:47.142Z,142.44
2022-09-14T04:20:47.170Z,142.45
2022-09-14T04:21:47.224Z,142.36
2022-09-14T04:22:47.243Z,142.43
2022-09-14T04:24:10.642Z,142.49
2022-09-14T04:24:47.382Z,142.45
2022-09-14T04:25:47.375Z,142.45
2022-09-14T04:26:47.385Z,142.46
2022-09-14T04:27:58.962Z,142.41
2022-09-14T04:28:47.473Z,142.48
2022-09-14T04:29:47.515Z,142.40
2022-09-14T04:30:47.578Z, 79.28
2022-09-14T04:31:47.742Z, 79.13
2022-09-14T04:32:47.699Z, 79.14
2022-09-14T04:33:47.791Z, 79.26
2022-09-14T04:34:47.697Z, 79.12
2022-09-14T04:35:47.717Z, 79.12
2022-09-14T04:36:47.765Z, 79.12
2022-09-14T04:37:47.804Z, 79.14
2022-09-14T04:38:47.897Z, 79.07
2022-09-14T04:39:47.969Z, 79.09
2022-09-14T04:40:47.921Z, 79.11
2022-09-14T04:41:47.982Z, 79.00
2022-09-14T04:42:48.018Z, 79.08
2022-09-14T04:43:47.999Z, 79.08
2022-09-14T04:44:48.043Z, 79.01
2022-09-14T04:45:48.074Z, 78.97
2022-09-14T04:46:48.305Z, 78.98
2022-09-14T04:47:48.219Z, 79.09
2022-09-14T04:48:48.275Z, 79.04
2022-09-14T04:49:48.239Z, 79.05
2022-09-14T04:50:48.259Z, 79.01
2022-09-14T04:51:48.289Z, 79.01
2022-09-14T04:52:48.388Z, 78.97
2022-09-14T04:53:48.367Z, 79.04
2022-09-14T04:54:48.405Z, 79.10
2022-09-14T04:55:48.446Z, 79.03
2022-09-14T04:56:48.475Z, 78.97
2022-09-14T04:57:48.505Z, 78.99
2022-09-14T04:58:51.584Z, 78.98
2022-09-14T04:59:48.571Z, 78.99
2022-09-14T05:00:48.647Z, 78.99
2022-09-14T05:01:48.829Z, 79.02
2022-09-14T05:02:48.789Z, 79.34
2022-09-14T05:03:48.792Z, 79.72
2022-09-14T05:04:48.722Z, 79.34
2022-09-14T05:05:48.749Z, 79.49
2022-09-14T05:06:48.834Z, 79.21
2022-09-14T05:07:48.872Z, 79.17
2022-09-14T05:08:48.893Z, 79.46
2022-09-14T05:09:48.929Z, 78.97
2022-09-14T05:10:48.967Z, 79.26
2022-09-14T05:11:49.043Z, 79.05
2022-09-14T05:12:49.033Z, 78.92
2022-09-14T05:13:50.402Z, 79.16
2022-09-14T05:14:49.136Z, 79.13
2022-09-14T05:15:49.246Z, 79.05
2022-09-14T05:16:49.173Z, 79.06
2022-09-14T05:17:49.209Z, 79.24
2022-09-14T05:18:49.413Z, 79.12
2022-09-14T05:19:49.265Z, 78.83
2022-09-14T05:20:49.270Z, 78.75
2022-09-14T05:21:49.354Z, 78.90
2022-09-14T05:22:49.347Z, 79.08
2022-09-14T05:23:49.462Z, 78.98
2022-09-14T05:24:49.435Z, 78.87
2022-09-14T05:25:49.456Z, 78.86
2022-09-14T05:26:49.463Z, 78.98
2022-09-14T05:27:49.493Z, 78.82
2022-09-14T05:28:49.523Z, 78.70
2022-09-14T05:29:49.564Z, 79.02
2022-09-14T05:30:49.698Z, 79.06
2022-09-14T05:31:49.664Z, 79.02
2022-09-14T05:32:49.762Z, 78.88
2022-09-14T05:33:49.812Z, 79.23
2022-09-14T05:34:49.782Z, 79.21
2022-09-14T05:35:49.785Z, 79.33
2022-09-14T05:36:49.893Z, 78.91
2022-09-14T05:37:49.866Z, 78.70
2022-09-14T05:38:50.046Z, 78.81
2022-09-14T05:39:49.989Z, 78.76
2022-09-14T05:40:49.976Z, 78.80
2022-09-14T05:41:50.050Z, 78.82
2022-09-14T05:42:50.023Z, 78.81
2022-09-14T05:43:50.060Z, 78.78
2022-09-14T05:44:50.161Z, 78.85
2022-09-14T05:45:50.136Z, 78.82
2022-09-14T05:46:50.280Z, 78.97
2022-09-14T05:47:50.210Z, 78.73
2022-09-14T05:48:50.297Z, 78.82
2022-09-14T05:49:50.258Z, 78.79
2022-09-14T05:50:50.282Z, 78.76
2022-09-14T05:51:50.346Z, 78.77
2022-09-14T05:52:50.432Z, 78.75
2022-09-14T05:53:50.559Z, 78.76
2022-09-14T05:54:50.436Z, 78.78
2022-09-14T05:55:50.482Z, 78.79
2022-09-14T05:56:50.490Z, 78.84
2022-09-14T05:57:50.587Z, 78.80
2022-09-14T05:58:50.583Z, 78.74
2022-09-14T05:59:50.628Z, 78.75
2022-09-14T06:00:50.701Z, 78.72
2022-09-14T06:01:50.740Z, 78.77
2022-09-14T06:02:50.717Z, 78.77
2022-09-14T06:03:50.834Z, 78.71
2022-09-14T06:04:50.934Z, 78.72
2022-09-14T06:05:50.864Z, 78.79
2022-09-14T06:07:14.533Z, 78.79
2022-09-14T06:07:50.944Z, 78.80
2022-09-14T06:08:50.921Z, 78.77
2022-09-14T06:09:50.953Z, 78.78
2022-09-14T06:10:51.039Z, 78.81
2022-09-14T06:11:51.023Z, 78.76
2022-09-14T06:12:54.863Z, 78.81
2022-09-14T06:13:51.289Z, 78.77
2022-09-14T06:14:51.102Z, 78.84
2022-09-14T06:15:51.153Z, 78.72
2022-09-14T06:16:51.187Z, 78.80
2022-09-14T06:17:51.266Z, 78.81
2022-09-14T06:18:51.259Z, 78.80
2022-09-14T06:19:51.260Z, 78.78
2022-09-14T06:20:51.301Z, 78.82
2022-09-14T06:21:51.340Z, 78.76
2022-09-14T06:22:51.374Z, 78.81
2022-09-14T06:23:51.410Z, 78.83
2022-09-14T06:24:51.451Z, 78.76
2022-09-14T06:25:51.485Z, 78.76
2022-09-14T06:26:51.524Z, 78.79
2022-09-14T06:27:51.557Z, 78.81
2022-09-14T06:28:51.582Z, 78.76
2022-09-14T06:29:51.628Z, 78.82
2022-09-14T06:30:51.725Z, 78.81
2022-09-14T06:31:51.737Z, 78.86
2022-09-14T06:32:51.778Z, 78.82
2022-09-14T06:33:51.842Z, 78.78
2022-09-14T06:34:51.792Z, 78.71
2022-09-14T06:35:51.820Z, 78.76
2022-09-14T06:36:51.889Z, 78.75
2022-09-14T06:37:51.883Z, 78.72
2022-09-14T06:38:51.910Z, 78.75
2022-09-14T06:39:51.997Z, 78.74
2022-09-14T06:40:52.065Z, 78.70
2022-09-14T06:41:52.037Z, 78.71
2022-09-14T06:42:52.054Z, 78.75
2022-09-14T06:43:52.141Z, 78.73
2022-09-14T06:44:52.129Z, 78.71
2022-09-14T06:45:52.167Z, 78.69
2022-09-14T06:46:52.212Z, 78.64
2022-09-14T06:47:52.303Z, 78.68
2022-09-14T06:48:52.284Z, 78.64
2022-09-14T06:49:52.305Z, 78.69
2022-09-14T06:50:52.334Z, 78.71
2022-09-14T06:51:52.407Z, 78.63
2022-09-14T06:52:52.391Z, 78.69
2022-09-14T06:53:52.468Z, 78.62
2022-09-14T06:54:52.477Z, 78.58
2022-09-14T06:55:52.569Z, 78.66
2022-09-14T06:56:52.549Z, 78.66
2022-09-14T06:57:52.582Z, 78.68
2022-09-14T06:58:52.673Z, 78.69
2022-09-14T06:59:52.664Z, 78.67
2022-09-14T07:00:52.730Z, 78.67
2022-09-14T07:01:52.766Z, 78.68
2022-09-14T07:02:55.624Z, 78.65
2022-09-14T07:03:52.802Z, 78.68
2022-09-14T07:04:52.828Z, 78.66
2022-09-14T07:05:52.903Z, 78.62
2022-09-14T07:06:52.960Z, 78.59
2022-09-14T07:07:52.929Z, 78.62
2022-09-14T07:08:53.096Z, 78.64
2022-09-14T07:09:53.028Z, 78.64
2022-09-14T07:10:53.057Z, 78.62
2022-09-14T07:11:53.076Z, 78.66
2022-09-14T07:12:53.127Z, 78.61
2022-09-14T07:13:53.167Z, 78.57
2022-09-14T07:14:53.144Z, 78.57
2022-09-14T07:15:53.186Z, 78.65
2022-09-14T07:16:53.278Z, 78.59
2022-09-14T07:17:53.263Z, 78.60
2022-09-14T07:18:53.298Z, 78.65
2022-09-14T07:19:53.300Z, 78.54
2022-09-14T07:20:53.353Z, 78.57
2022-09-14T07:21:53.402Z, 78.66
2022-09-14T07:22:53.417Z, 78.61
2022-09-14T07:23:53.451Z, 78.60
2022-09-14T07:24:53.482Z, 78.61
2022-09-14T07:25:53.513Z, 78.57
2022-09-14T07:26:53.539Z, 78.55
2022-09-14T07:27:53.569Z, 78.54
2022-09-14T07:28:53.605Z, 78.59
2022-09-14T07:29:53.712Z, 78.61
2022-09-14T07:30:58.346Z, 78.59
2022-09-14T07:31:53.767Z, 78.57
2022-09-14T07:32:53.762Z, 78.60
2022-09-14T07:33:53.777Z, 78.59
2022-09-14T07:34:53.800Z, 78.63
2022-09-14T07:35:53.832Z, 78.60
2022-09-14T07:36:53.882Z, 78.53
2022-09-14T07:37:53.927Z, 78.54
2022-09-14T07:38:54.086Z, 78.56
2022-09-14T07:39:54.106Z, 78.54
2022-09-14T07:40:54.077Z, 78.60
2022-09-14T07:41:54.057Z, 78.55
2022-09-14T07:42:57.476Z, 78.61
2022-09-14T07:43:54.124Z, 78.56
2022-09-14T07:44:54.141Z, 78.62
2022-09-14T07:45:54.249Z, 78.58
2022-09-14T07:46:54.192Z, 78.55
2022-09-14T07:47:54.231Z, 78.61
2022-09-14T07:48:54.254Z, 78.59
2022-09-14T07:49:54.289Z, 78.56
2022-09-14T07:50:54.369Z, 78.53
2022-09-14T07:51:54.363Z, 78.56
2022-09-14T07:52:54.382Z, 78.57
2022-09-14T07:53:54.412Z, 78.48
2022-09-14T07:54:54.453Z, 78.54
2022-09-14T07:55:54.518Z, 78.61
2022-09-14T07:56:54.517Z, 78.55
2022-09-14T07:57:56.450Z, 78.47
2022-09-14T07:58:56.649Z, 78.48
2022-09-14T07:59:54.665Z, 78.54
2022-09-14T08:00:54.647Z, 49.88
2022-09-14T08:01:54.844Z, 49.74
2022-09-14T08:02:54.816Z, 49.73
2022-09-14T08:03:54.744Z, 49.74
2022-09-14T08:04:54.827Z, 49.74
2022-09-14T08:05:54.808Z, 49.74
2022-09-14T08:06:54.815Z, 49.72
2022-09-14T08:07:54.892Z, 49.74
2022-09-14T08:08:54.888Z, 49.73
2022-09-14T08:09:54.960Z, 49.67
2022-09-14T08:10:54.958Z, 49.70
2022-09-14T08:11:55.006Z, 49.74
2022-09-14T08:12:55.070Z, 49.71
2022-09-14T08:13:55.041Z, 49.73
2022-09-14T08:14:55.074Z, 49.71
2022-09-14T08:15:55.185Z, 49.70
2022-09-14T08:16:55.298Z, 49.64
2022-09-14T08:17:55.204Z, 49.70
2022-09-14T08:18:55.226Z, 49.69
2022-09-14T08:19:55.292Z, 49.62
2022-09-14T08:20:55.258Z, 49.67
2022-09-14T08:21:55.298Z, 49.63
2022-09-14T08:22:55.338Z, 49.71
2022-09-14T08:23:55.383Z, 49.61
2022-09-14T08:24:55.470Z, 49.61
2022-09-14T08:25:55.448Z, 49.63
2022-09-14T08:26:55.507Z, 49.57
2022-09-14T08:27:55.520Z, 49.66
2022-09-14T08:28:55.532Z, 49.66
2022-09-14T08:29:55.612Z, 49.58
2022-09-14T08:30:55.657Z, 49.66
2022-09-14T08:31:55.733Z, 49.61
2022-09-14T08:32:58.962Z, 49.60
2022-09-14T08:33:55.764Z, 49.59
2022-09-14T08:34:55.769Z, 49.70
2022-09-14T08:35:58.334Z, 49.66
2022-09-14T08:36:55.844Z, 49.68
2022-09-14T08:37:55.850Z, 49.71
2022-09-14T08:38:55.879Z, 49.68
2022-09-14T08:39:55.954Z, 49.59
2022-09-14T08:40:55.938Z, 49.59
2022-09-14T08:41:55.980Z, 49.61
2022-09-14T08:42:56.020Z, 49.63
2022-09-14T08:43:56.059Z, 49.71
2022-09-14T08:44:56.141Z, 49.62
2022-09-14T08:45:56.208Z, 49.66
2022-09-14T08:46:56.163Z, 49.62
2022-09-14T08:47:56.175Z, 49.58
2022-09-14T08:48:56.217Z, 49.59
2022-09-14T08:49:56.314Z, 49.54
2022-09-14T08:50:56.350Z, 49.65
2022-09-14T08:51:56.344Z, 49.59
2022-09-14T08:52:56.372Z, 49.60
2022-09-14T08:53:56.413Z, 49.65
2022-09-14T08:54:56.427Z, 49.58
2022-09-14T08:55:56.447Z, 49.58
2022-09-14T08:56:56.534Z, 49.61
2022-09-14T08:57:56.728Z, 49.60
2022-09-14T08:58:56.563Z, 49.63
2022-09-14T08:59:56.654Z, 49.60
2022-09-14T09:00:56.723Z, 49.58
2022-09-14T09:01:56.668Z, 49.61
2022-09-14T09:02:56.760Z, 49.54
2022-09-14T09:03:56.809Z, 49.57
2022-09-14T09:04:56.759Z, 49.61
2022-09-14T09:05:56.807Z, 49.63
2022-09-14T09:06:56.875Z, 49.58
2022-09-14T09:07:56.865Z, 49.59
2022-09-14T09:08:56.962Z, 49.62
2022-09-14T09:09:56.940Z, 49.62
2022-09-14T09:10:56.950Z, 49.65
2022-09-14T09:11:56.984Z, 49.64
2022-09-14T09:12:57.055Z, 49.66
2022-09-14T09:13:57.093Z, 49.67
2022-09-14T09:14:57.105Z, 49.58
2022-09-14T09:15:57.204Z, 49.61
2022-09-14T09:16:57.187Z, 49.59
2022-09-14T09:17:57.219Z, 49.62
2022-09-14T09:18:57.260Z, 49.63
2022-09-14T09:19:57.287Z, 49.70
2022-09-14T09:20:57.314Z, 49.53
2022-09-14T09:21:57.368Z, 49.54
2022-09-14T09:22:57.435Z, 49.66
2022-09-14T09:23:57.437Z, 49.62
2022-09-14T09:24:57.537Z, 49.62
2022-09-14T09:25:57.538Z, 49.69
2022-09-14T09:26:57.577Z, 49.58
2022-09-14T09:27:57.564Z, 49.62
2022-09-14T09:28:57.635Z, 49.60
2022-09-14T09:29:57.687Z, 49.61
2022-09-14T09:30:57.677Z, 49.58
2022-09-14T09:31:57.759Z, 49.61
2022-09-14T09:32:57.776Z, 49.59
2022-09-14T09:33:57.773Z, 49.58
2022-09-14T09:34:57.861Z, 49.59
2022-09-14T09:35:57.838Z, 49.52
2022-09-14T09:36:57.934Z, 49.55
2022-09-14T09:37:57.912Z, 49.60
2022-09-14T09:39:00.637Z, 49.60
2022-09-14T09:39:58.074Z, 49.56
2022-09-14T09:40:58.058Z, 49.59
2022-09-14T09:41:58.095Z, 49.55
2022-09-14T09:42:58.115Z, 49.59
2022-09-14T09:43:58.098Z, 49.56
2022-09-14T09:45:01.243Z, 49.57
2022-09-14T09:45:58.168Z, 49.59
2022-09-14T09:46:58.548Z, 49.62
2022-09-14T09:47:58.253Z, 49.62
2022-09-14T09:48:58.270Z, 49.64
2022-09-14T09:49:58.360Z, 49.60
2022-09-14T09:50:58.355Z, 49.56
2022-09-14T09:51:58.353Z, 49.62
2022-09-14T09:53:00.334Z, 49.61
2022-09-14T09:53:58.452Z, 49.60
2022-09-14T09:54:58.476Z, 49.57
2022-09-14T09:55:58.502Z, 49.58
2022-09-14T09:56:58.534Z, 49.60
2022-09-14T09:57:58.635Z, 49.62
2022-09-14T09:58:58.614Z, 49.58
2022-09-14T09:59:58.659Z, 49.60
2022-09-14T10:00:58.821Z, 49.65
2022-09-14T10:01:58.854Z, 49.62
2022-09-14T10:02:58.783Z, 49.56
2022-09-14T10:03:58.808Z, 49.59
2022-09-14T10:04:58.840Z, 49.51
2022-09-14T10:05:58.906Z, 49.54
2022-09-14T10:06:58.915Z, 49.52
2022-09-14T10:07:58.920Z, 49.55
2022-09-14T10:08:58.965Z, 49.59
2022-09-14T10:09:59.056Z, 49.50
2022-09-14T10:10:59.034Z, 49.59
2022-09-14T10:11:59.117Z, 49.63
2022-09-14T10:12:59.092Z, 49.64
2022-09-14T10:13:59.163Z, 49.66
2022-09-14T10:14:59.209Z, 49.65
2022-09-14T10:15:59.262Z, 49.60
2022-09-14T10:16:59.288Z, 49.63
2022-09-14T10:17:59.309Z, 49.67
2022-09-14T10:18:59.289Z, 49.59
2022-09-14T10:19:59.315Z, 49.54
2022-09-14T10:20:59.343Z, 49.62
2022-09-14T10:21:59.455Z, 49.58
2022-09-14T10:22:59.498Z, 49.56
2022-09-14T10:23:59.521Z, 49.67
2022-09-14T10:24:59.558Z, 49.64
2022-09-14T10:25:59.549Z, 49.59
2022-09-14T10:26:59.570Z, 49.62
2022-09-14T10:27:59.596Z, 49.60
2022-09-14T10:28:59.675Z, 49.59
2022-09-14T10:29:59.725Z, 49.62
2022-09-14T10:30:59.842Z, 49.55
2022-09-14T10:31:59.775Z, 49.55
2022-09-14T10:32:59.783Z, 49.58
2022-09-14T10:33:59.868Z, 49.60
2022-09-14T10:34:59.845Z, 49.59
2022-09-14T10:35:59.858Z, 49.58
2022-09-14T10:36:59.904Z, 49.80
2022-09-14T10:37:59.935Z, 49.62
2022-09-14T10:38:59.970Z, 49.55
2022-09-14T10:40:00.074Z, 49.59
2022-09-14T10:41:00.091Z, 49.58
2022-09-14T10:42:00.147Z, 49.56
2022-09-14T10:43:00.103Z, 49.56
2022-09-14T10:44:00.130Z, 49.57
2022-09-14T10:45:00.150Z, 49.63
2022-09-14T10:46:00.351Z, 49.59
2022-09-14T10:47:04.405Z, 49.56
2022-09-14T10:48:00.301Z, 49.51
2022-09-14T10:49:00.285Z, 49.59
2022-09-14T10:50:00.363Z, 49.66
2022-09-14T10:51:00.356Z, 49.57
2022-09-14T10:52:00.418Z, 49.60
2022-09-14T10:53:00.420Z, 49.59
2022-09-14T10:54:00.507Z, 49.54
2022-09-14T10:55:00.499Z, 49.56
2022-09-14T10:56:00.526Z, 49.53
2022-09-14T10:57:00.538Z, 49.52
2022-09-14T10:58:00.562Z, 49.57
2022-09-14T10:59:00.612Z, 49.59
2022-09-14T11:00:00.663Z, 49.51
2022-09-14T11:01:00.747Z, 49.56
2022-09-14T11:02:00.919Z, 49.59
2022-09-14T11:03:00.944Z, 49.52
2022-09-14T11:04:00.820Z, 49.59
2022-09-14T11:05:00.874Z, 49.61
2022-09-14T11:06:00.874Z, 49.60
2022-09-14T11:07:00.967Z, 49.55
2022-09-14T11:08:00.957Z, 49.56
2022-09-14T11:09:00.986Z, 49.57
2022-09-14T11:10:01.017Z, 49.57
2022-09-14T11:11:01.051Z, 49.57
2022-09-14T11:12:01.142Z, 49.56
2022-09-14T11:13:01.146Z, 49.56
2022-09-14T11:14:01.183Z, 49.62
2022-09-14T11:15:01.158Z, 49.60
2022-09-14T11:16:01.317Z, 49.54
2022-09-14T11:17:01.225Z, 49.54
2022-09-14T11:18:01.249Z, 49.59
2022-09-14T11:19:01.286Z, 49.57
2022-09-14T11:20:01.354Z, 49.61
2022-09-14T11:21:01.350Z, 49.67
2022-09-14T11:22:01.360Z, 49.57
2022-09-14T11:23:01.412Z, 49.60
2022-09-14T11:24:01.441Z, 49.61
2022-09-14T11:25:01.502Z, 49.56
2022-09-14T11:26:01.566Z, 49.61
2022-09-14T11:27:01.564Z, 49.64
2022-09-14T11:28:01.560Z, 49.57
2022-09-14T11:29:01.657Z, 49.62
2022-09-14T11:30:01.711Z, 49.55
2022-09-14T11:31:01.745Z, 49.53
2022-09-14T11:32:19.846Z, 49.62
2022-09-14T11:33:01.813Z, 49.58
2022-09-14T11:34:01.844Z, 49.54
2022-09-14T11:35:01.837Z, 49.55
2022-09-14T11:36:01.858Z, 49.61
2022-09-14T11:37:01.903Z, 49.59
2022-09-14T11:38:01.939Z, 49.61
2022-09-14T11:39:06.535Z, 49.60
2022-09-14T11:40:02.153Z, 49.53
2022-09-14T11:41:02.104Z, 49.55
2022-09-14T11:42:02.087Z, 49.53
2022-09-14T11:43:02.092Z, 49.53
2022-09-14T11:44:02.138Z, 49.57
2022-09-14T11:45:02.203Z, 49.54
2022-09-14T11:46:02.370Z, 49.56
2022-09-14T11:47:02.260Z, 49.60
2022-09-14T11:48:02.292Z, 49.59
2022-09-14T11:49:02.317Z, 49.55
2022-09-14T11:50:02.392Z, 49.54
2022-09-14T11:51:02.461Z, 49.55
2022-09-14T11:52:02.441Z, 49.60
2022-09-14T11:53:02.476Z, 49.56
2022-09-14T11:54:02.555Z, 49.58
2022-09-14T11:55:02.549Z, 49.63
2022-09-14T11:56:02.573Z, 49.56
2022-09-14T11:57:02.603Z, 49.55
2022-09-14T11:58:02.667Z, 49.60
2022-09-14T11:59:02.701Z, 49.54
2022-09-14T12:00:02.795Z, 49.55
2022-09-14T12:01:02.833Z, 49.57
2022-09-14T12:02:02.806Z, 49.59
2022-09-14T12:03:02.927Z, 49.53
2022-09-14T12:04:02.932Z, 49.62
2022-09-14T12:05:02.893Z, 49.60
2022-09-14T12:06:02.979Z, 49.59
2022-09-14T12:07:03.041Z, 49.55
2022-09-14T12:08:03.060Z, 49.53
2022-09-14T12:09:03.051Z, 49.80
2022-09-14T12:10:03.095Z, 49.90
2022-09-14T12:11:03.152Z, 49.95
2022-09-14T12:12:03.150Z, 49.86
2022-09-14T12:13:03.193Z, 49.44
2022-09-14T12:14:03.196Z, 49.69
2022-09-14T12:15:03.232Z, 49.62
2022-09-14T12:16:03.430Z, 49.57
2022-09-14T12:17:13.072Z, 49.57
2022-09-14T12:18:03.347Z, 49.66
2022-09-14T12:19:03.365Z, 49.83
2022-09-14T12:20:03.402Z, 49.70
2022-09-14T12:21:03.461Z, 49.80
2022-09-14T12:22:03.480Z, 49.59
2022-09-14T12:23:03.501Z, 49.56
2022-09-14T12:24:03.536Z, 49.81
2022-09-14T12:25:03.619Z, 49.65
2022-09-14T12:26:03.602Z, 49.74
2022-09-14T12:27:03.616Z, 49.49
2022-09-14T12:28:03.711Z, 49.39
2022-09-14T12:29:03.710Z, 49.78